Time;durP1;ratioP1;P1;durP2;ratioP2;P2;SDS_P1;SDS_P2;PMS_P1;PMS_P2;Temp;Humidity;BMP_temperature;BMP_pressure;BME280_temperature;BME280_humidity;BME280_pressure;Samples;Min_cycle;Max_cycle;Signal;HPM_P1;HPM_P2
2022/11/07 00:01:45;;;;;;;;;;;;;;;;;;10594391;28;19923;-66
2022/11/07 00:06:47;;;;;;;;;;;;;;;;;;10593501;28;19963;-66
2022/11/07 00:11:50;;;;;;;;;;;;;;;;;;10588436;28;19976;-66
2022/11/07 00:16:52;;;;;;;;;;;;;;;;;;10587860;28;20362;-66
2022/11/07 00:21:54;;;;;;;;;;;;;;;;;;10586746;28;19924;-66
2022/11/07 00:26:56;;;;;;;;;;;;;;;;;;10587151;28;19927;-66
2022/11/07 00:31:58;;;;;;;;;;;;;;;;;;10587855;28;19924;-66
2022/11/07 00:37:01;;;;;;;;;;;;;;;;;;10587736;28;19930;-66
2022/11/07 00:42:03;;;;;;;;;;;;;;;;;;10586538;28;19976;-66
2022/11/07 00:47:05;;;;;;;;;;;;;;;;;;10586449;28;19928;-66
2022/11/07 00:52:07;;;;;;;;;;;;;;;;;;10585467;28;20316;-66
2022/11/07 00:57:09;;;;;;;;;;;;;;;;;;10586330;28;19948;-66
2022/11/07 01:02:11;;;;;;;;;;;;;;;;;;10584535;28;20374;-65
2022/11/07 01:07:14;;;;;;;;;;;;;;;;;;10585157;28;19930;-66
2022/11/07 01:12:16;;;;;;;;;;;;;;;;;;10585547;28;19971;-66
2022/11/07 01:17:18;;;;;;;;;;;;;;;;;;10586088;28;19969;-66
2022/11/07 01:22:20;;;;;;;;;;;;;;;;;;10583385;28;19931;-66
2022/11/07 01:27:22;;;;;;;;;;;;;;;;;;10585386;28;19985;-66
2022/11/07 01:32:24;;;;;;;;;;;;;;;;;;10585393;28;19924;-66
2022/11/07 01:37:26;;;;;;;;;;;;;;;;;;10582804;28;19924;-66
2022/11/07 01:42:28;;;;;;;;;;;;;;;;;;10585080;28;19924;-66
2022/11/07 01:47:30;;;;;;;;;;;;;;;;;;10584262;28;19981;-66
2022/11/07 01:52:33;;;;;;;;;;;;;;;;;;10583630;28;19928;-67
2022/11/07 01:57:35;;;;;;;;;;;;;;;;;;10584446;28;19924;-66
2022/11/07 02:02:37;;;;;;;;;;;;;;;;;;10584300;28;19924;-66
2022/11/07 02:07:39;;;;;;;;;;;;;;;;;;10582652;28;19970;-66
2022/11/07 02:12:41;;;;;;;;;;;;;;;;;;10583791;28;19924;-66
2022/11/07 02:17:43;;;;;;;;;;;;;;;;;;10582010;28;19924;-66
2022/11/07 02:22:45;;;;;;;;;;;;;;;;;;10583535;28;19972;-66
2022/11/07 02:27:47;;;;;;;;;;;;;;;;;;10581831;28;19924;-66
2022/11/07 02:32:49;;;;;;;;;;;;;;;;;;10582750;28;19972;-66
2022/11/07 02:37:51;;;;;;;;;;;;;;;;;;10583131;28;19924;-66
2022/11/07 02:42:53;;;;;;;;;;;;;;;;;;10581560;28;20335;-67
2022/11/07 02:47:55;;;;;;;;;;;;;;;;;;10582049;28;19977;-66
2022/11/07 02:52:57;;;;;;;;;;;;;;;;;;10582018;28;19924;-66
2022/11/07 02:57:59;;;;;;;;;;;;;;;;;;10581658;28;19924;-66
2022/11/07 03:03:01;;;;;;;;;;;;;;;;;;10581720;28;20324;-66
2022/11/07 03:08:03;;;;;;;;;;;;;;;;;;10581763;28;19924;-66
2022/11/07 03:13:05;;;;;;;;;;;;;;;;;;10581522;28;20374;-66
2022/11/07 03:18:07;;;;;;;;;;;;;;;;;;10581620;28;19923;-66
2022/11/07 03:23:10;;;;;;;;;;;;;;;;;;10581306;28;19923;-66
2022/11/07 03:28:12;;;;;;;;;;;;;;;;;;10581073;28;19924;-66
2022/11/07 03:33:14;;;;;;;;;;;;;;;;;;10581318;28;19923;-66
2022/11/07 03:38:16;;;;;;;;;;;;;;;;;;10581914;28;19924;-66
2022/11/07 03:43:18;;;;;;;;;;;;;;;;;;10582164;28;19928;-66
2022/11/07 03:48:20;;;;;;;;;;;;;;;;;;10587255;28;19928;-66
2022/11/07 03:53:22;;;;;;;;;;;;;;;;;;10587971;28;20324;-66
2022/11/07 03:58:26;;;;;;;;;;;;;;;;;;10589312;28;19923;-66
2022/11/07 04:03:28;;;;;;;;;;;;;;;;;;10587450;28;19923;-66
2022/11/07 04:08:30;;;;;;;;;;;;;;;;;;10568181;28;19928;-66
2022/11/07 04:18:53;;;;;;;;;;;;;;;;;;10586095;28;19923;-66
2022/11/07 04:23:55;;;;;;;;;;;;;;;;;;10587659;28;20051;-66
2022/11/07 04:28:57;;;;;;;;;;;;;;;;;;10588143;28;19932;-66
2022/11/07 04:33:59;;;;;;;;;;;;;;;;;;10587197;28;19926;-66
2022/11/07 04:39:01;;;;;;;;;;;;;;;;;;10587732;28;19977;-66
2022/11/07 04:44:03;;;;;;;;;;;;;;;;;;10586017;28;20086;-66
2022/11/07 04:49:05;;;;;;;;;;;;;;;;;;10587300;28;19924;-66
2022/11/07 04:54:08;;;;;;;;;;;;;;;;;;10586090;28;20367;-66
2022/11/07 04:59:10;;;;;;;;;;;;;;;;;;10585365;28;19924;-66
2022/11/07 05:04:12;;;;;;;;;;;;;;;;;;10568130;28;19977;-66
2022/11/07 05:09:14;;;;;;;;;;;;;;;;;;10585817;28;19924;-66
2022/11/07 05:14:16;;;;;;;;;;;;;;;;;;10584624;28;19924;-66
2022/11/07 05:19:18;;;;;;;;;;;;;;;;;;10585232;28;19977;-66
2022/11/07 05:24:20;;;;;;;;;;;;;;;;;;10585841;28;19927;-66
2022/11/07 05:29:22;;;;;;;;;;;;;;;;;;10585044;28;20378;-66
2022/11/07 05:34:24;;;;;;;;;;;;;;;;;;10582948;28;19924;-66
2022/11/07 05:39:26;;;;;;;;;;;;;;;;;;10584651;28;20503;-66
2022/11/07 05:44:28;;;;;;;;;;;;;;;;;;10584264;28;19950;-66
2022/11/07 05:49:30;;;;;;;;;;;;;;;;;;10584203;28;20307;-67
2022/11/07 05:54:32;;;;;;;;;;;;;;;;;;10582560;28;19924;-66
2022/11/07 05:59:34;;;;;;;;;;;;;;;;;;10583811;28;19924;-67
2022/11/07 06:04:36;;;;;;;;;;;;;;;;;;10583475;28;19969;-66
2022/11/07 06:09:38;;;;;;;;;;;;;;;;;;10582678;28;19924;-66
2022/11/07 06:14:40;;;;;;;;;;;;;;;;;;10582883;28;19980;-66
2022/11/07 06:19:42;;;;;;;;;;;;;;;;;;10583677;28;19923;-66
2022/11/07 06:24:44;;;;;;;;;;;;;;;;;;10582967;28;19924;-67
2022/11/07 06:29:47;;;;;;;;;;;;;;;;;;10581128;28;19924;-66
2022/11/07 06:34:49;;;;;;;;;;;;;;;;;;10583218;28;19923;-67
2022/11/07 06:39:52;;;;;;;;;;;;;;;;;;10582492;28;20358;-67
2022/11/07 06:44:54;;;;;;;;;;;;;;;;;;10581366;28;19923;-67
2022/11/07 06:49:56;;;;;;;;;;;;;;;;;;10582754;28;19973;-67
2022/11/07 06:54:58;;;;;;;;;;;;;;;;;;10582652;28;19970;-67
2022/11/07 07:00:00;;;;;;;;;;;;;;;;;;10580289;28;20084;-66
2022/11/07 07:05:02;;;;;;;;;;;;;;;;;;10581280;28;19924;-66
2022/11/07 07:10:04;;;;;;;;;;;;;;;;;;10581563;28;19976;-66
2022/11/07 07:15:06;;;;;;;;;;;;;;;;;;10580822;28;19927;-66
2022/11/07 07:20:08;;;;;;;;;;;;;;;;;;10588435;28;19924;-66
2022/11/07 07:25:10;;;;;;;;;;;;;;;;;;10590000;28;20349;-67
2022/11/07 07:30:12;;;;;;;;;;;;;;;;;;10588970;28;19992;-67
2022/11/07 07:35:14;;;;;;;;;;;;;;;;;;10589569;28;20340;-67
2022/11/07 07:40:16;;;;;;;;;;;;;;;;;;10589095;28;19977;-67
2022/11/07 07:45:18;;;;;;;;;;;;;;;;;;10589257;28;20375;-67
2022/11/07 07:50:20;;;;;;;;;;;;;;;;;;10589690;28;19927;-67
2022/11/07 07:55:22;;;;;;;;;;;;;;;;;;10588532;28;19924;-67
2022/11/07 08:00:24;;;;;;;;;;;;;;;;;;10587170;28;19928;-67
2022/11/07 08:05:26;;;;;;;;;;;;;;;;;;10587220;28;19923;-67
2022/11/07 08:10:28;;;;;;;;;;;;;;;;;;10588996;28;19923;-68
2022/11/07 08:15:46;;;;;;;;;;;;;;;;;;10589040;28;19977;-68
2022/11/07 08:20:48;;;;;;;;;;;;;;;;;;10586869;28;19969;-67
2022/11/07 08:25:50;;;;;;;;;;;;;;;;;;10588314;28;19989;-67
2022/11/07 08:30:52;;;;;;;;;;;;;;;;;;10586824;28;19924;-67
2022/11/07 08:35:55;;;;;;;;;;;;;;;;;;10586324;28;20444;-67
2022/11/07 08:40:57;;;;;;;;;;;;;;;;;;10570028;28;20000;-67
2022/11/07 08:45:59;;;;;;;;;;;;;;;;;;10583965;28;20375;-68
2022/11/07 08:51:04;;;;;;;;;;;;;;;;;;10587235;28;19973;-68
2022/11/07 08:56:06;;;;;;;;;;;;;;;;;;10586448;28;20390;-67
2022/11/07 09:01:08;;;;;;;;;;;;;;;;;;10586874;28;19969;-67
2022/11/07 09:06:10;;;;;;;;;;;;;;;;;;10567885;28;20093;-68
2022/11/07 09:11:14;;;;;;;;;;;;;;;;;;10585803;28;20321;-68
2022/11/07 09:16:16;;;;;;;;;;;;;;;;;;10593760;22;19924;-63
2022/11/07 09:21:18;;;;;;;;;;;;;;;;;;10585276;28;20255;-63
2022/11/07 09:26:23;;;;;;;;;;;;;;;;;;10585269;28;20374;-63
2022/11/07 09:31:25;;;;;;;;;;;;;;;;;;10585607;28;19927;-63
2022/11/07 09:36:27;;;;;;;;;;;;;;;;;;10585532;28;19923;-63
2022/11/07 09:41:29;;;;;;;;;;;;;;;;;;10584867;28;19930;-63
2022/11/07 09:46:32;;;;;;;;;;;;;;;;;;10585128;28;19980;-63
2022/11/07 09:51:34;;;;;;;;;;;;;;;;;;10584858;28;19924;-63
2022/11/07 09:56:36;;;;;;;;;;;;;;;;;;10584040;28;19950;-63
2022/11/07 10:01:38;;;;;;;;;;;;;;;;;;10584477;28;19950;-63
2022/11/07 10:06:40;;;;;;;;;;;;;;;;;;10584313;28;19963;-63
2022/11/07 10:11:42;;;;;;;;;;;;;;;;;;10583435;28;19927;-63
2022/11/07 10:16:46;;;;;;;;;;;;;;;;;;10582947;28;19924;-63
2022/11/07 10:21:48;;;;;;;;;;;;;;;;;;10583792;28;20003;-63
2022/11/07 10:26:50;;;;;;;;;;;;;;;;;;10584512;28;19923;-65
2022/11/07 10:31:52;;;;;;;;;;;;;;;;;;10583341;28;19927;-65
2022/11/07 10:36:54;;;;;;;;;;;;;;;;;;10582651;28;20259;-65
2022/11/07 10:41:57;;;;;;;;;;;;;;;;;;10582538;28;19927;-65
2022/11/07 10:46:59;;;;;;;;;;;;;;;;;;10582392;28;20366;-64
2022/11/07 10:52:01;;;;;;;;;;;;;;;;;;10581871;28;20327;-64
2022/11/07 10:57:03;;;;;;;;;;;;;;;;;;10582763;28;19924;-65
2022/11/07 11:02:05;;;;;;;;;;;;;;;;;;10582131;28;19924;-65
2022/11/07 11:07:08;;;;;;;;;;;;;;;;;;10577332;28;19935;-65
2022/11/07 11:12:10;;;;;;;;;;;;;;;;;;10579727;28;19949;-65
2022/11/07 11:17:12;;;;;;;;;;;;;;;;;;10581546;28;20407;-65
2022/11/07 11:22:14;;;;;;;;;;;;;;;;;;10582243;28;20356;-65
2022/11/07 11:27:16;;;;;;;;;;;;;;;;;;10580443;28;19931;-65
2022/11/07 11:32:20;;;;;;;;;;;;;;;;;;10581048;28;19928;-66
2022/11/07 11:37:22;;;;;;;;;;;;;;;;;;10561306;28;20095;-65
2022/11/07 11:42:24;;;;;;;;;;;;;;;;;;10581830;28;19973;-65
2022/11/07 11:47:27;;;;;;;;;;;;;;;;;;10555653;28;20286;-67
2022/11/07 11:52:35;;;;;;;;;;;;;;;;;;10580873;28;19950;-67
2022/11/07 11:57:37;;;;;;;;;;;;;;;;;;10581580;28;19969;-65
2022/11/07 12:02:39;;;;;;;;;;;;;;;;;;10579365;28;19924;-64
2022/11/07 12:07:41;;;;;;;;;;;;;;;;;;10586845;28;20354;-65
2022/11/07 12:12:43;;;;;;;;;;;;;;;;;;10564749;28;19977;-64
2022/11/07 12:17:45;;;;;;;;;;;;;;;;;;10587279;28;19931;-64
2022/11/07 12:22:47;;;;;;;;;;;;;;;;;;10585975;28;19923;-65
2022/11/07 12:27:49;;;;;;;;;;;;;;;;;;10587547;28;19976;-64
2022/11/07 12:32:51;;;;;;;;;;;;;;;;;;10587347;28;19924;-64
2022/11/07 12:37:55;;;;;;;;;;;;;;;;;;10587623;28;19930;-64
2022/11/07 12:42:57;;;;;;;;;;;;;;;;;;10586690;28;19923;-64
2022/11/07 12:48:00;;;;;;;;;;;;;;;;;;10587473;28;19931;-64
2022/11/07 12:53:03;;;;;;;;;;;;;;;;;;10586133;28;19928;-64
2022/11/07 12:58:05;;;;;;;;;;;;;;;;;;10587129;28;20032;-65
2022/11/07 13:03:07;;;;;;;;;;;;;;;;;;10542144;28;20294;-64
2022/11/07 13:08:09;;;;;;;;;;;;;;;;;;10563483;28;19923;-64
2022/11/07 13:13:11;;;;;;;;;;;;;;;;;;10585770;28;20328;-64
2022/11/07 13:18:13;;;;;;;;;;;;;;;;;;10585312;28;19931;-64
2022/11/07 13:23:15;;;;;;;;;;;;;;;;;;10582617;28;19924;-64
2022/11/07 13:28:17;;;;;;;;;;;;;;;;;;10585917;28;19923;-65
2022/11/07 13:33:19;;;;;;;;;;;;;;;;;;10585456;28;19928;-64
2022/11/07 13:38:22;;;;;;;;;;;;;;;;;;10583597;28;19950;-65
2022/11/07 13:43:24;;;;;;;;;;;;;;;;;;10585226;28;19949;-64
2022/11/07 13:48:26;;;;;;;;;;;;;;;;;;10583040;28;20271;-64
2022/11/07 13:53:28;;;;;;;;;;;;;;;;;;10584746;28;19969;-64
2022/11/07 13:58:30;;;;;;;;;;;;;;;;;;10584849;28;20424;-64
2022/11/07 14:03:32;;;;;;;;;;;;;;;;;;10584360;28;19972;-65
2022/11/07 14:08:36;;;;;;;;;;;;;;;;;;10584242;28;19924;-65
2022/11/07 14:13:38;;;;;;;;;;;;;;;;;;10583123;28;20320;-65
2022/11/07 14:18:42;;;;;;;;;;;;;;;;;;10565350;28;19973;-64
2022/11/07 14:23:44;;;;;;;;;;;;;;;;;;10583075;28;20439;-64
2022/11/07 14:28:46;;;;;;;;;;;;;;;;;;10582960;28;19984;-65
2022/11/07 14:33:48;;;;;;;;;;;;;;;;;;10582613;28;19969;-65
2022/11/07 14:38:50;;;;;;;;;;;;;;;;;;10583411;28;19924;-64
2022/11/07 14:43:52;;;;;;;;;;;;;;;;;;10582726;28;19935;-64
2022/11/07 14:48:54;;;;;;;;;;;;;;;;;;10582914;28;19924;-64
2022/11/07 14:53:57;;;;;;;;;;;;;;;;;;10582734;28;19924;-64
2022/11/07 14:58:59;;;;;;;;;;;;;;;;;;10582702;28;19924;-64
2022/11/07 15:04:01;;;;;;;;;;;;;;;;;;10581867;28;19946;-64
2022/11/07 15:09:03;;;;;;;;;;;;;;;;;;10582564;28;19936;-64
2022/11/07 15:14:05;;;;;;;;;;;;;;;;;;10583309;28;19973;-64
2022/11/07 15:19:07;;;;;;;;;;;;;;;;;;10582105;28;19928;-64
2022/11/07 15:24:09;;;;;;;;;;;;;;;;;;10582251;28;19924;-64
2022/11/07 15:29:16;;;;;;;;;;;;;;;;;;10581563;28;20435;-64
2022/11/07 15:34:18;;;;;;;;;;;;;;;;;;10581997;28;19927;-64
2022/11/07 15:39:40;;;;;;;;;;;;;;;;;;10584777;28;19959;-64
2022/11/07 15:44:42;;;;;;;;;;;;;;;;;;10589438;28;20424;-64
2022/11/07 15:49:44;;;;;;;;;;;;;;;;;;10589898;28;19924;-64
2022/11/07 15:54:46;;;;;;;;;;;;;;;;;;10589590;28;19972;-64
2022/11/07 15:59:48;;;;;;;;;;;;;;;;;;10558626;28;19924;-64
2022/11/07 16:04:50;;;;;;;;;;;;;;;;;;10567445;28;19924;-64
2022/11/07 16:09:52;;;;;;;;;;;;;;;;;;10588088;28;19969;-64
2022/11/07 16:14:58;;;;;;;;;;;;;;;;;;10587819;28;20340;-64
2022/11/07 16:20:00;;;;;;;;;;;;;;;;;;10587814;28;19931;-64
2022/11/07 16:25:02;;;;;;;;;;;;;;;;;;10588375;28;19923;-64
2022/11/07 16:30:09;;;;;;;;;;;;;;;;;;10588279;28;19924;-64
2022/11/07 16:35:11;;;;;;;;;;;;;;;;;;10587324;28;19969;-64
2022/11/07 16:40:13;;;;;;;;;;;;;;;;;;10587773;28;19928;-64
2022/11/07 16:45:15;;;;;;;;;;;;;;;;;;10587008;28;19924;-64
2022/11/07 16:50:17;;;;;;;;;;;;;;;;;;10585905;28;20328;-65
2022/11/07 16:55:19;;;;;;;;;;;;;;;;;;10587355;28;19974;-64
2022/11/07 17:00:21;;;;;;;;;;;;;;;;;;10586421;28;20332;-64
2022/11/07 17:05:23;;;;;;;;;;;;;;;;;;10586890;28;19928;-64
2022/11/07 17:10:25;;;;;;;;;;;;;;;;;;10585939;28;20332;-65
2022/11/07 17:15:27;;;;;;;;;;;;;;;;;;10586378;28;19950;-67
2022/11/07 17:20:33;;;;;;;;;;;;;;;;;;10585039;28;19923;-64
2022/11/07 17:25:51;;;;;;;;;;;;;;;;;;10585342;28;20290;-64
2022/11/07 17:30:53;;;;;;;;;;;;;;;;;;10585632;28;19928;-64
2022/11/07 17:35:55;;;;;;;;;;;;;;;;;;10584803;28;19976;-64
2022/11/07 17:41:15;;;;;;;;;;;;;;;;;;10584776;28;19923;-64
2022/11/07 17:46:19;;;;;;;;;;;;;;;;;;10585222;28;19924;-64
2022/11/07 17:51:21;;;;;;;;;;;;;;;;;;10584250;28;19924;-64
2022/11/07 17:56:23;;;;;;;;;;;;;;;;;;10584691;28;20033;-64
2022/11/07 18:01:25;;;;;;;;;;;;;;;;;;10583134;28;20370;-64
2022/11/07 18:06:28;;;;;;;;;;;;;;;;;;10584385;28;19931;-64
2022/11/07 18:11:32;;;;;;;;;;;;;;;;;;10583584;28;20289;-64
2022/11/07 18:16:36;;;;;;;;;;;;;;;;;;10583338;28;20379;-64
2022/11/07 18:21:38;;;;;;;;;;;;;;;;;;10582978;28;19923;-64
2022/11/07 18:26:40;;;;;;;;;;;;;;;;;;10583380;28;19973;-64
2022/11/07 18:31:42;;;;;;;;;;;;;;;;;;10580911;28;19969;-64
2022/11/07 18:36:44;;;;;;;;;;;;;;;;;;10534576;28;20313;-64
2022/11/07 18:41:46;;;;;;;;;;;;;;;;;;10537038;28;19928;-64
2022/11/07 18:46:48;;;;;;;;;;;;;;;;;;10540944;28;19970;-64
2022/11/07 18:51:50;;;;;;;;;;;;;;;;;;10540457;28;19924;-64
2022/11/07 18:56:52;;;;;;;;;;;;;;;;;;10540310;28;19969;-64
2022/11/07 19:01:54;;;;;;;;;;;;;;;;;;10540603;28;19924;-64
2022/11/07 19:06:57;;;;;;;;;;;;;;;;;;10539959;28;20282;-64
2022/11/07 19:11:59;;;;;;;;;;;;;;;;;;10540392;28;19931;-64
2022/11/07 19:17:01;;;;;;;;;;;;;;;;;;10548789;28;19924;-64
2022/11/07 19:22:04;;;;;;;;;;;;;;;;;;10548098;28;19928;-64
2022/11/07 19:27:06;;;;;;;;;;;;;;;;;;10547997;28;19924;-64
2022/11/07 19:32:08;;;;;;;;;;;;;;;;;;10547982;28;19970;-64
2022/11/07 19:37:10;;;;;;;;;;;;;;;;;;10548105;28;19928;-64
2022/11/07 19:42:12;;;;;;;;;;;;;;;;;;10548009;28;19928;-64
2022/11/07 19:47:15;;;;;;;;;;;;;;;;;;10547572;28;19924;-64
2022/11/07 19:52:17;;;;;;;;;;;;;;;;;;10546877;28;20374;-64
2022/11/07 19:57:19;;;;;;;;;;;;;;;;;;10547460;28;19977;-64
2022/11/07 20:02:21;;;;;;;;;;;;;;;;;;10546953;28;19950;-64
2022/11/07 20:07:43;;;;;;;;;;;;;;;;;;10546972;28;19959;-65
2022/11/07 20:12:45;;;;;;;;;;;;;;;;;;10546121;28;19950;-65
2022/11/07 20:17:47;;;;;;;;;;;;;;;;;;10546349;28;19931;-65
2022/11/07 20:22:49;;;;;;;;;;;;;;;;;;10546415;28;19973;-64
2022/11/07 20:27:51;;;;;;;;;;;;;;;;;;10545275;28;19974;-65
2022/11/07 20:32:53;;;;;;;;;;;;;;;;;;10545271;28;20500;-65
2022/11/07 20:37:55;;;;;;;;;;;;;;;;;;10545770;28;19924;-65
2022/11/07 20:43:00;;;;;;;;;;;;;;;;;;10545524;28;19931;-64
2022/11/07 20:48:02;;;;;;;;;;;;;;;;;;10545441;28;19924;-64
2022/11/07 20:53:04;;;;;;;;;;;;;;;;;;10545157;28;19932;-64
2022/11/07 20:58:06;;;;;;;;;;;;;;;;;;10544389;28;20424;-65
2022/11/07 21:03:11;;;;;;;;;;;;;;;;;;10544719;28;19924;-65
2022/11/07 21:08:13;;;;;;;;;;;;;;;;;;10544639;28;19928;-64
2022/11/07 21:13:16;;;;;;;;;;;;;;;;;;10543700;28;20331;-64
2022/11/07 21:18:18;;;;;;;;;;;;;;;;;;10544107;28;19928;-65
2022/11/07 21:23:20;;;;;;;;;;;;;;;;;;10543331;28;20287;-64
2022/11/07 21:28:24;;;;;;;;;;;;;;;;;;10543162;28;19924;-64
2022/11/07 21:33:26;;;;;;;;;;;;;;;;;;10568752;22;19924;-64
2022/11/07 21:38:28;;;;;;;;;;;;;;;;;;10584946;28;20366;-65
2022/11/07 21:43:30;;;;;;;;;;;;;;;;;;10567395;28;19977;-64
2022/11/07 21:48:32;;;;;;;;;;;;;;;;;;10584628;28;19924;-65
2022/11/07 21:53:34;;;;;;;;;;;;;;;;;;10584916;28;19969;-65
2022/11/07 21:58:40;;;;;;;;;;;;;;;;;;10584788;28;19923;-65
2022/11/07 22:03:42;;;;;;;;;;;;;;;;;;10583195;28;19976;-65
2022/11/07 22:09:04;;;;;;;;;;;;;;;;;;10542186;28;19952;-64
2022/11/07 22:14:06;;;;;;;;;;;;;;;;;;10541988;28;20032;-64
2022/11/07 22:19:08;;;;;;;;;;;;;;;;;;10541227;28;20340;-64
2022/11/07 22:24:13;;;;;;;;;;;;;;;;;;10541695;28;19924;-64
2022/11/07 22:29:15;;;;;;;;;;;;;;;;;;10522968;28;20270;-64
2022/11/07 22:34:17;;;;;;;;;;;;;;;;;;10540501;28;20379;-64
2022/11/07 22:39:19;;;;;;;;;;;;;;;;;;10541201;28;19927;-64
2022/11/07 22:44:21;;;;;;;;;;;;;;;;;;10540398;28;20325;-65
2022/11/07 22:49:23;;;;;;;;;;;;;;;;;;10539848;28;19967;-64
2022/11/07 22:54:25;;;;;;;;;;;;;;;;;;10540069;28;19932;-64
2022/11/07 22:59:27;;;;;;;;;;;;;;;;;;10540668;28;19973;-64
2022/11/07 23:04:29;;;;;;;;;;;;;;;;;;10540534;28;19924;-64
2022/11/07 23:09:33;;;;;;;;;;;;;;;;;;10540499;28;19925;-64
2022/11/07 23:14:36;;;;;;;;;;;;;;;;;;10521748;28;19950;-64
2022/11/07 23:19:38;;;;;;;;;;;;;;;;;;10540310;28;19977;-64
2022/11/07 23:24:40;;;;;;;;;;;;;;;;;;10539536;28;20397;-64
2022/11/07 23:29:42;;;;;;;;;;;;;;;;;;10539557;28;19924;-64
2022/11/07 23:34:44;;;;;;;;;;;;;;;;;;10539142;28;19928;-64
2022/11/07 23:39:46;;;;;;;;;;;;;;;;;;10539904;28;19924;-64
2022/11/07 23:55:39;;;;;;;;;;;;;;;;;;10539490;28;19924;-64
